createdAt,value
2024-01-17T00:00:19.921Z,35.45
2024-01-17T00:02:47.313Z,34.15
2024-01-17T00:05:14.546Z,31.40
2024-01-17T00:07:41.862Z,32.58
2024-01-17T00:10:10.386Z,32.88
2024-01-17T00:12:37.633Z,31.98
2024-01-17T00:15:05.148Z,33.72
2024-01-17T00:17:32.511Z,31.77
2024-01-17T00:19:59.813Z,33.88
2024-01-17T00:22:27.004Z,31.42
2024-01-17T00:24:54.697Z,31.58
2024-01-17T00:27:25.317Z,31.65
2024-01-17T00:29:59.366Z,31.25
2024-01-17T00:32:27.110Z,31.88
2024-01-17T00:34:55.856Z,31.17
2024-01-17T00:37:23.141Z,31.45
2024-01-17T00:39:50.526Z,28.92
2024-01-17T00:42:17.748Z,31.58
2024-01-17T00:44:45.169Z,31.98
2024-01-17T00:47:13.961Z,29.88
2024-01-17T00:49:41.543Z,29.98
2024-01-17T00:52:11.089Z,30.55
2024-01-17T00:54:38.361Z,30.20
2024-01-17T00:57:05.815Z,30.27
2024-01-17T00:59:33.160Z,28.88
2024-01-17T01:02:03.066Z,28.85
2024-01-17T01:04:30.448Z,31.33
2024-01-17T01:06:57.675Z,29.65
2024-01-17T01:09:24.927Z,27.42
2024-01-17T01:11:52.435Z,28.42
2024-01-17T01:14:19.696Z,28.60
2024-01-17T01:16:46.857Z,28.85
2024-01-17T01:19:14.258Z,27.27
2024-01-17T01:21:41.621Z,28.58
2024-01-17T01:24:08.968Z,27.65
2024-01-17T01:26:45.200Z,26.65
2024-01-17T01:29:12.635Z,27.77
2024-01-17T01:31:39.809Z,28.75
2024-01-17T01:34:07.072Z,27.20
2024-01-17T01:36:34.399Z,28.25
2024-01-17T01:39:01.745Z,27.55
2024-01-17T01:41:28.992Z,27.40
2024-01-17T01:43:56.261Z,25.48
2024-01-17T01:46:26.038Z,26.67
2024-01-17T01:48:53.582Z,26.20
2024-01-17T01:51:21.304Z,26.02
2024-01-17T01:53:50.484Z,26.70
2024-01-17T01:56:19.245Z,24.05
2024-01-17T01:58:47.762Z,25.90
2024-01-17T02:01:16.486Z,25.80
2024-01-17T02:03:44.673Z,25.73
2024-01-17T02:06:14.272Z,25.25
2024-01-17T02:08:41.808Z,24.58
2024-01-17T02:11:10.019Z,24.90
2024-01-17T02:13:37.822Z,24.25
2024-01-17T02:16:05.178Z,24.08
2024-01-17T02:18:32.534Z,24.17
2024-01-17T02:20:59.962Z,23.35
2024-01-17T02:23:28.224Z,23.33
2024-01-17T02:25:56.259Z,24.77
2024-01-17T02:28:23.612Z,24.15
2024-01-17T02:30:50.865Z,22.80
2024-01-17T02:33:18.269Z,23.23
2024-01-17T02:35:45.585Z,24.00
2024-01-17T02:38:12.917Z,23.20
2024-01-17T02:40:40.136Z,23.25
2024-01-17T02:43:07.629Z,22.73
2024-01-17T02:45:34.906Z,23.23
2024-01-17T02:48:02.368Z,21.55
2024-01-17T02:50:29.751Z,23.02
2024-01-17T02:52:56.973Z,23.00
2024-01-17T02:55:24.478Z,22.17
2024-01-17T02:57:52.343Z,21.23
2024-01-17T03:00:20.020Z,22.17
2024-01-17T03:02:48.061Z,21.35
2024-01-17T03:05:15.625Z,21.60
2024-01-17T03:07:42.867Z,22.13
2024-01-17T03:10:12.887Z,22.38
2024-01-17T03:12:40.923Z,20.60
2024-01-17T03:15:09.336Z,19.77
2024-01-17T03:17:39.948Z,21.58
2024-01-17T03:20:09.347Z,21.13
2024-01-17T03:22:36.551Z,19.77
2024-01-17T03:25:03.971Z,20.50
2024-01-17T03:27:31.132Z,30.73
2024-01-17T03:30:01.235Z,19.98
2024-01-17T03:32:28.497Z,19.48
2024-01-17T03:34:57.247Z,20.38
2024-01-17T03:37:24.528Z,19.60
2024-01-17T03:39:51.740Z,19.20
2024-01-17T03:42:18.985Z,20.55
2024-01-17T03:44:46.743Z,19.48
2024-01-17T03:47:14.197Z,18.50
2024-01-17T03:49:41.706Z,18.27
2024-01-17T03:52:09.054Z,19.88
2024-01-17T03:54:37.632Z,18.98
2024-01-17T03:57:06.589Z,18.27
2024-01-17T03:59:34.181Z,17.13
2024-01-17T04:02:01.705Z,17.45
2024-01-17T04:04:29.073Z,18.75
2024-01-17T04:06:56.732Z,18.45
2024-01-17T04:09:24.272Z,18.48
2024-01-17T04:11:51.673Z,17.40
2024-01-17T04:14:19.062Z,18.67
2024-01-17T04:16:46.330Z,17.10
2024-01-17T04:19:13.647Z,17.17
2024-01-17T04:21:40.906Z,16.67
2024-01-17T04:24:08.227Z,17.95
2024-01-17T04:26:35.605Z,16.58
2024-01-17T04:29:02.886Z,17.40
2024-01-17T04:31:31.501Z,18.20
2024-01-17T04:34:00.342Z,17.25
2024-01-17T04:36:31.385Z,17.73
2024-01-17T04:38:59.281Z,16.15
2024-01-17T04:41:27.135Z,16.77
2024-01-17T04:43:54.428Z,15.52
2024-01-17T04:46:21.743Z,16.00
2024-01-17T04:48:49.383Z,16.27
2024-01-17T04:51:17.200Z,16.13
2024-01-17T04:53:45.049Z,15.13
2024-01-17T04:56:14.670Z,16.48
2024-01-17T04:58:42.169Z,14.60
2024-01-17T05:01:12.631Z,16.00
2024-01-17T05:03:43.056Z,15.80
2024-01-17T05:06:10.397Z,14.57
2024-01-17T05:08:37.716Z,15.38
2024-01-17T05:11:05.128Z,16.10
2024-01-17T05:13:32.435Z,14.38
2024-01-17T05:15:59.684Z,14.73
2024-01-17T05:18:27.167Z,15.57
2024-01-17T05:20:54.501Z,15.13
2024-01-17T05:23:21.745Z,14.77
2024-01-17T05:25:49.442Z,14.25
2024-01-17T05:28:16.715Z,15.65
2024-01-17T05:30:43.968Z,14.25
2024-01-17T05:33:11.492Z,14.25
2024-01-17T05:35:38.848Z,14.18
2024-01-17T05:38:06.193Z,14.52
2024-01-17T05:40:33.519Z,13.77
2024-01-17T05:43:01.996Z,13.65
2024-01-17T05:45:29.348Z,15.00
2024-01-17T05:47:56.666Z,15.32
2024-01-17T05:50:24.161Z,15.00
2024-01-17T05:52:51.471Z,17.30
2024-01-17T05:55:20.456Z,13.55
2024-01-17T05:57:47.709Z,15.50
2024-01-17T06:00:15.239Z,14.00
2024-01-17T06:02:44.420Z,13.27
2024-01-17T06:05:12.819Z,13.52
2024-01-17T06:07:41.797Z,13.43
2024-01-17T06:10:09.941Z,37.08
2024-01-17T06:12:37.117Z,45.22
2024-01-17T06:15:04.589Z,51.25
2024-01-17T06:17:33.077Z,49.05
2024-01-17T06:20:00.473Z,44.97
2024-01-17T06:22:27.748Z,36.63
2024-01-17T06:24:54.947Z,42.60
2024-01-17T06:27:23.404Z,41.05
2024-01-17T06:29:50.674Z,41.13
2024-01-17T06:32:17.925Z,40.80
2024-01-17T06:34:45.710Z,33.25
2024-01-17T06:37:13.051Z,39.47
2024-01-17T06:39:41.101Z,35.28
2024-01-17T06:42:08.450Z,36.80
2024-01-17T06:44:35.777Z,32.58
2024-01-17T06:47:04.962Z,36.35
2024-01-17T06:49:32.488Z,38.67
2024-01-17T06:51:59.816Z,33.30
2024-01-17T06:54:27.160Z,31.10
2024-01-17T06:56:54.432Z,31.27
2024-01-17T06:59:21.614Z,31.20
2024-01-17T07:01:49.012Z,28.45
2024-01-17T07:04:16.291Z,32.17
2024-01-17T07:06:43.516Z,29.60
2024-01-17T07:09:12.379Z,30.38
2024-01-17T07:11:39.767Z,34.35
2024-01-17T07:14:07.065Z,31.70
2024-01-17T07:16:34.791Z,29.25
2024-01-17T07:19:02.089Z,29.92
2024-01-17T07:21:29.549Z,32.78
2024-01-17T07:23:56.782Z,26.63
2024-01-17T07:26:24.008Z,25.30
2024-01-17T07:28:51.187Z,29.35
2024-01-17T07:31:18.445Z,26.20
2024-01-17T07:33:45.766Z,24.83
2024-01-17T07:36:13.354Z,27.42
2024-01-17T07:38:40.719Z,23.83
2024-01-17T07:41:07.955Z,29.70
2024-01-17T07:43:37.618Z,24.67
2024-01-17T07:46:05.175Z,22.15
2024-01-17T07:48:32.448Z,17.58
2024-01-17T07:50:59.764Z,16.60
2024-01-17T07:53:28.581Z,16.38
2024-01-17T07:55:57.144Z,17.17
2024-01-17T07:58:24.513Z,17.13
2024-01-17T08:00:51.883Z,21.35
2024-01-17T08:03:19.369Z,17.83
2024-01-17T08:05:46.815Z,21.92
2024-01-17T08:08:14.422Z,21.70
2024-01-17T08:10:41.594Z,22.33
2024-01-17T08:13:08.792Z,23.58
2024-01-17T08:15:36.113Z,23.10
2024-01-17T08:18:04.759Z,25.35
2024-01-17T08:20:32.728Z,25.52
2024-01-17T08:22:59.935Z,28.70
2024-01-17T08:25:27.714Z,32.35
2024-01-17T08:27:55.685Z,33.83
2024-01-17T08:30:23.250Z,34.88
2024-01-17T08:32:52.667Z,36.17
2024-01-17T08:35:20.072Z,39.63
2024-01-17T08:37:47.324Z,47.95
2024-01-17T08:40:14.689Z,43.15
2024-01-17T08:42:41.881Z,43.65
2024-01-17T08:45:09.518Z,45.20
2024-01-17T08:47:37.035Z,48.60
2024-01-17T08:50:04.565Z,51.35
2024-01-17T08:52:31.800Z,53.75
2024-01-17T08:55:02.207Z,53.95
2024-01-17T08:57:29.455Z,55.55
2024-01-17T08:59:56.684Z,59.70
2024-01-17T09:02:24.408Z,60.40
2024-01-17T09:04:51.658Z,62.88
2024-01-17T09:07:18.991Z,62.80
2024-01-17T09:09:47.437Z,63.85
2024-01-17T09:12:18.381Z,61.28
2024-01-17T09:14:45.689Z,63.33
2024-01-17T09:17:12.913Z,65.50
2024-01-17T09:19:40.280Z,65.05
2024-01-17T09:22:08.440Z,68.50
2024-01-17T09:24:37.809Z,67.15
2024-01-17T09:27:05.279Z,73.50
2024-01-17T09:29:34.961Z,73.22
2024-01-17T09:32:02.381Z,81.07
2024-01-17T09:34:30.564Z,83.43
2024-01-17T09:36:58.021Z,81.00
2024-01-17T09:39:25.275Z,86.93
2024-01-17T09:41:53.054Z,79.82
2024-01-17T09:44:20.288Z,53.80
2024-01-17T09:46:47.503Z,65.28
2024-01-17T09:49:15.025Z,63.17
2024-01-17T09:51:42.527Z,59.97
2024-01-17T09:54:09.755Z,62.33
2024-01-17T09:56:37.401Z,62.38
2024-01-17T09:59:24.491Z,62.63
2024-01-17T10:01:51.687Z,55.10
2024-01-17T10:04:19.970Z,56.60
2024-01-17T10:06:50.046Z,58.10
2024-01-17T10:09:17.553Z,61.42
2024-01-17T10:11:45.148Z,61.78
2024-01-17T10:14:13.236Z,63.88
2024-01-17T10:16:40.392Z,61.85
2024-01-17T10:19:07.931Z,57.08
2024-01-17T10:21:35.882Z,51.05
2024-01-17T10:24:03.739Z,52.40
2024-01-17T10:26:32.084Z,49.47
2024-01-17T10:28:59.549Z,49.78
2024-01-17T10:31:26.955Z,49.08
2024-01-17T10:33:55.783Z,46.97
2024-01-17T10:36:24.504Z,47.28
2024-01-17T10:38:51.954Z,48.40
2024-01-17T10:41:19.246Z,47.78
2024-01-17T10:43:56.701Z,47.35
2024-01-17T10:46:24.471Z,47.08
2024-01-17T10:48:55.047Z,50.88
2024-01-17T10:51:23.359Z,47.72
2024-01-17T10:53:55.222Z,51.10
2024-01-17T10:56:24.539Z,51.83
2024-01-17T10:58:52.885Z,54.58
2024-01-17T11:01:27.045Z,56.08
2024-01-17T11:03:58.315Z,60.03
2024-01-17T11:06:25.937Z,63.75
2024-01-17T11:08:53.399Z,81.95
2024-01-17T11:11:20.958Z,82.45
2024-01-17T11:13:49.274Z,80.30
2024-01-17T11:16:17.489Z,85.57
2024-01-17T11:18:47.438Z,86.55
2024-01-17T11:21:14.992Z,89.18
2024-01-17T11:23:45.120Z,93.82
2024-01-17T11:26:17.836Z,90.38
2024-01-17T11:29:08.426Z,90.15
2024-01-17T11:31:55.775Z,91.38
2024-01-17T11:34:23.691Z,92.05
2024-01-17T11:36:51.181Z,96.60
2024-01-17T11:39:19.602Z,99.00
2024-01-17T11:41:47.959Z,101.00
2024-01-17T11:44:16.732Z,106.97
2024-01-17T11:46:44.014Z,105.57
2024-01-17T11:49:11.614Z,111.63
2024-01-17T11:51:39.378Z,114.65
2024-01-17T11:54:06.949Z,123.47
2024-01-17T11:56:35.109Z,121.28
2024-01-17T11:59:10.493Z,122.93
2024-01-17T12:01:37.710Z,128.98
2024-01-17T12:04:15.058Z,129.43
2024-01-17T12:06:43.276Z,166.23
2024-01-17T12:09:16.989Z,144.57
2024-01-17T12:11:44.368Z,134.70
2024-01-17T12:14:11.563Z,113.85
2024-01-17T12:16:38.762Z,76.50
2024-01-17T12:19:06.180Z,76.70
2024-01-17T12:21:33.626Z,68.95
2024-01-17T12:24:01.086Z,69.60
2024-01-17T12:26:31.162Z,66.88
2024-01-17T12:29:09.505Z,73.47
2024-01-17T12:31:37.894Z,79.82
2024-01-17T12:34:08.390Z,86.55
2024-01-17T12:36:37.126Z,84.88
2024-01-17T12:39:10.238Z,90.50
2024-01-17T12:41:37.899Z,90.88
2024-01-17T12:44:06.213Z,86.47
2024-01-17T12:46:33.772Z,91.10
2024-01-17T12:49:03.108Z,97.03
2024-01-17T12:51:31.281Z,99.47
2024-01-17T12:53:59.367Z,102.38
2024-01-17T12:56:27.742Z,102.90
2024-01-17T12:58:54.949Z,107.32
2024-01-17T13:01:27.053Z,113.97
2024-01-17T13:04:01.562Z,122.18
2024-01-17T13:06:29.075Z,115.05
2024-01-17T13:08:56.425Z,109.20
2024-01-17T13:11:24.402Z,119.60
2024-01-17T13:14:00.049Z,118.20
2024-01-17T13:16:31.628Z,117.20
2024-01-17T13:18:59.404Z,121.97
2024-01-17T13:21:26.760Z,119.25
2024-01-17T13:23:54.011Z,133.38
2024-01-17T13:26:21.310Z,125.80
2024-01-17T13:28:48.534Z,131.88
2024-01-17T13:31:15.800Z,127.10
2024-01-17T13:33:44.750Z,129.82
2024-01-17T13:36:12.033Z,129.30
2024-01-17T13:38:41.227Z,139.45
2024-01-17T13:41:08.958Z,138.30
2024-01-17T13:43:36.719Z,137.43
2024-01-17T13:46:04.044Z,138.65
2024-01-17T13:48:31.502Z,142.65
2024-01-17T13:51:00.233Z,145.32
2024-01-17T13:53:32.488Z,137.60
2024-01-17T13:56:00.604Z,143.68
2024-01-17T13:58:28.623Z,132.50
2024-01-17T14:01:01.073Z,130.05
2024-01-17T14:03:32.485Z,125.75
2024-01-17T14:06:00.658Z,119.43
2024-01-17T14:08:28.116Z,103.43
2024-01-17T14:10:56.787Z,96.50
2024-01-17T14:13:25.566Z,94.88
2024-01-17T14:15:52.794Z,113.03
2024-01-17T14:18:20.289Z,120.50
2024-01-17T14:20:48.386Z,133.80
2024-01-17T14:23:16.184Z,132.60
2024-01-17T14:25:44.371Z,131.95
2024-01-17T14:28:11.566Z,125.07
2024-01-17T14:30:38.889Z,132.25
2024-01-17T14:33:07.020Z,126.32
2024-01-17T14:35:38.618Z,133.30
2024-01-17T14:38:06.978Z,132.35
2024-01-17T14:40:34.156Z,133.73
2024-01-17T14:43:01.928Z,141.88
2024-01-17T14:45:29.127Z,148.15
2024-01-17T14:47:56.838Z,149.02
2024-01-17T14:50:24.101Z,150.18
2024-01-17T14:52:51.984Z,152.13
2024-01-17T14:55:20.909Z,166.75
2024-01-17T14:57:50.275Z,166.00
2024-01-17T15:00:21.389Z,171.20
2024-01-17T15:02:49.875Z,170.85
2024-01-17T15:05:18.291Z,175.38
2024-01-17T15:07:46.595Z,173.43
2024-01-17T15:10:17.154Z,174.85
2024-01-17T15:12:44.361Z,180.18
2024-01-17T15:15:14.691Z,190.55
2024-01-17T15:17:42.192Z,189.95
2024-01-17T15:20:11.241Z,192.25
2024-01-17T15:22:38.789Z,196.23
2024-01-17T15:25:08.740Z,196.90
2024-01-17T15:27:37.779Z,191.98
2024-01-17T15:30:06.448Z,201.68
2024-01-17T15:32:34.033Z,196.95
2024-01-17T15:35:02.100Z,211.60
2024-01-17T15:37:29.653Z,205.80
2024-01-17T15:39:56.861Z,213.63
2024-01-17T15:42:24.277Z,203.50
2024-01-17T15:44:53.526Z,216.40
2024-01-17T15:47:20.968Z,216.90
2024-01-17T15:49:48.202Z,212.35
2024-01-17T15:52:16.030Z,216.38
2024-01-17T15:54:43.978Z,218.27
2024-01-17T15:57:11.387Z,218.82
2024-01-17T15:59:38.891Z,221.90
2024-01-17T16:02:06.651Z,227.43
2024-01-17T16:04:37.677Z,227.35
2024-01-17T16:07:05.107Z,222.57
2024-01-17T16:09:32.385Z,222.18
2024-01-17T16:11:59.692Z,223.63
2024-01-17T16:14:26.942Z,230.02
2024-01-17T16:16:54.149Z,232.90
2024-01-17T16:19:21.672Z,234.20
2024-01-17T16:21:55.073Z,231.07
2024-01-17T16:24:22.497Z,230.07
2024-01-17T16:26:50.352Z,234.80
2024-01-17T16:29:17.849Z,237.70
2024-01-17T16:31:50.468Z,236.95
2024-01-17T16:34:18.103Z,234.60
2024-01-17T16:36:45.398Z,237.02
2024-01-17T16:39:13.825Z,232.93
2024-01-17T16:41:42.843Z,232.32
2024-01-17T16:44:10.605Z,238.90
2024-01-17T16:46:41.570Z,231.82
2024-01-17T16:49:09.004Z,232.50
2024-01-17T16:51:36.691Z,227.77
2024-01-17T16:54:04.142Z,229.95
2024-01-17T16:56:31.753Z,236.52
2024-01-17T16:58:58.917Z,233.38
2024-01-17T17:01:26.427Z,227.45
2024-01-17T17:03:54.419Z,217.40
2024-01-17T17:06:22.997Z,230.43
2024-01-17T17:08:50.260Z,236.70
2024-01-17T17:11:17.465Z,236.95
2024-01-17T17:13:44.667Z,234.38
2024-01-17T17:16:11.920Z,242.23
2024-01-17T17:18:39.249Z,237.50
2024-01-17T17:21:06.834Z,234.05
2024-01-17T17:23:34.056Z,242.95
2024-01-17T17:26:07.079Z,242.35
2024-01-17T17:28:35.906Z,240.98
2024-01-17T17:31:03.265Z,233.10
2024-01-17T17:33:30.664Z,228.65
2024-01-17T17:35:58.215Z,229.02
2024-01-17T17:38:25.447Z,220.93
2024-01-17T17:40:52.803Z,220.60
2024-01-17T17:43:20.021Z,219.45
2024-01-17T17:45:47.222Z,219.18
2024-01-17T17:48:17.948Z,214.43
2024-01-17T17:50:45.649Z,216.23
2024-01-17T17:53:13.683Z,205.82
2024-01-17T17:55:43.175Z,208.55
2024-01-17T17:58:11.323Z,212.48
2024-01-17T18:00:38.747Z,207.07
2024-01-17T18:03:08.036Z,201.75
2024-01-17T18:05:35.590Z,200.45
2024-01-17T18:08:04.278Z,193.07
2024-01-17T18:10:32.931Z,191.05
2024-01-17T18:13:00.258Z,188.00
2024-01-17T18:15:27.880Z,190.52
2024-01-17T18:17:55.495Z,193.07
2024-01-17T18:20:23.668Z,187.57
2024-01-17T18:22:54.149Z,189.70
2024-01-17T18:25:21.462Z,180.70
2024-01-17T18:27:48.671Z,180.65
2024-01-17T18:30:16.312Z,184.32
2024-01-17T18:32:43.929Z,170.90
2024-01-17T18:35:11.432Z,177.88
2024-01-17T18:37:38.684Z,174.00
2024-01-17T18:40:10.058Z,172.23
2024-01-17T18:42:37.300Z,170.15
2024-01-17T18:45:04.802Z,175.73
2024-01-17T18:47:32.107Z,162.52
2024-01-17T18:49:59.340Z,168.52
2024-01-17T18:52:26.605Z,162.32
2024-01-17T18:54:53.785Z,162.02
2024-01-17T18:57:21.075Z,159.23
2024-01-17T18:59:48.997Z,156.75
2024-01-17T19:02:16.727Z,160.00
2024-01-17T19:04:44.051Z,150.52
2024-01-17T19:07:12.746Z,151.32
2024-01-17T19:09:39.976Z,145.15
2024-01-17T19:12:09.138Z,147.05
2024-01-17T19:14:36.712Z,144.27
2024-01-17T19:17:04.120Z,139.90
2024-01-17T19:19:31.507Z,134.57
2024-01-17T19:21:59.159Z,140.95
2024-01-17T19:24:26.724Z,139.77
2024-01-17T19:26:54.587Z,138.75
2024-01-17T19:29:21.886Z,135.30
2024-01-17T19:31:54.054Z,140.38
2024-01-17T19:34:21.806Z,138.27
2024-01-17T19:36:51.324Z,135.15
2024-01-17T19:39:18.544Z,134.27
2024-01-17T19:41:45.765Z,133.68
2024-01-17T19:44:13.098Z,133.27
2024-01-17T19:46:41.290Z,135.27
2024-01-17T19:49:09.222Z,131.75
2024-01-17T19:51:36.667Z,126.63
2024-01-17T19:54:05.048Z,124.78
2024-01-17T19:56:33.164Z,130.45
2024-01-17T19:59:00.374Z,127.45
2024-01-17T20:01:28.919Z,127.97
2024-01-17T20:03:56.393Z,130.13
2024-01-17T20:06:24.016Z,129.88
2024-01-17T20:08:51.517Z,124.80
2024-01-17T20:11:22.067Z,122.15
2024-01-17T20:13:50.044Z,123.18
2024-01-17T20:16:17.346Z,120.65
2024-01-17T20:18:44.920Z,121.82
2024-01-17T20:21:22.073Z,122.95
2024-01-17T20:23:50.487Z,120.18
2024-01-17T20:26:18.680Z,120.63
2024-01-17T20:28:45.931Z,121.28
2024-01-17T20:31:13.869Z,117.25
2024-01-17T20:33:42.870Z,117.40
2024-01-17T20:36:17.832Z,124.32
2024-01-17T20:38:45.433Z,123.18
2024-01-17T20:41:18.967Z,121.13
2024-01-17T20:43:46.836Z,125.63
2024-01-17T20:46:14.627Z,120.13
2024-01-17T20:48:42.133Z,117.13
2024-01-17T20:51:09.554Z,121.47
2024-01-17T20:53:37.577Z,121.10
2024-01-17T20:56:08.648Z,119.93
2024-01-17T20:58:36.321Z,117.80
2024-01-17T21:01:03.837Z,116.90
2024-01-17T21:03:31.251Z,116.10
2024-01-17T21:05:58.676Z,113.88
2024-01-17T21:08:26.734Z,116.40
2024-01-17T21:10:54.915Z,115.10
2024-01-17T21:13:22.771Z,116.15
2024-01-17T21:15:50.031Z,115.50
2024-01-17T21:18:20.448Z,113.82
2024-01-17T21:20:47.736Z,115.97
2024-01-17T21:23:17.614Z,110.07
2024-01-17T21:25:44.935Z,111.70
2024-01-17T21:28:12.166Z,109.95
2024-01-17T21:30:40.081Z,109.78
2024-01-17T21:33:07.709Z,107.63
2024-01-17T21:35:35.176Z,105.40
2024-01-17T21:38:03.090Z,106.10
2024-01-17T21:40:30.269Z,106.85
2024-01-17T21:42:57.463Z,108.00
2024-01-17T21:45:24.671Z,104.82
2024-01-17T21:47:51.967Z,101.80
2024-01-17T21:50:20.833Z,97.57
2024-01-17T21:52:48.017Z,98.30
2024-01-17T21:55:15.250Z,103.40
2024-01-17T21:57:42.453Z,101.15
2024-01-17T22:00:10.782Z,101.22
2024-01-17T22:02:38.201Z,100.00
2024-01-17T22:05:05.533Z,103.90
2024-01-17T22:07:32.771Z,94.38
2024-01-17T22:10:00.011Z,96.45
2024-01-17T22:12:27.336Z,96.30
2024-01-17T22:14:55.387Z,96.28
2024-01-17T22:17:22.745Z,89.97
2024-01-17T22:19:50.260Z,95.88
2024-01-17T22:22:17.491Z,93.85
2024-01-17T22:24:44.697Z,94.93
2024-01-17T22:27:11.971Z,92.68
2024-01-17T22:29:39.299Z,91.40
2024-01-17T22:32:06.505Z,94.55
2024-01-17T22:34:33.951Z,91.57
2024-01-17T22:37:01.440Z,93.55
2024-01-17T22:39:28.881Z,95.13
2024-01-17T22:41:57.156Z,91.20
2024-01-17T22:44:24.811Z,91.43
2024-01-17T22:46:52.082Z,88.97
2024-01-17T22:49:19.302Z,91.20
2024-01-17T22:51:52.288Z,89.20
2024-01-17T22:54:19.516Z,92.43
2024-01-17T22:56:46.778Z,94.20
2024-01-17T22:59:14.097Z,91.43
2024-01-17T23:01:41.316Z,90.32
2024-01-17T23:04:09.266Z,89.22
2024-01-17T23:06:36.794Z,89.00
2024-01-17T23:09:04.955Z,91.85
2024-01-17T23:11:37.220Z,87.60
2024-01-17T23:14:04.611Z,88.63
2024-01-17T23:16:32.810Z,87.65
2024-01-17T23:19:00.451Z,89.03
2024-01-17T23:21:27.829Z,90.85
2024-01-17T23:23:55.085Z,87.32
2024-01-17T23:26:22.307Z,99.15
2024-01-17T23:28:49.624Z,94.75
2024-01-17T23:31:16.887Z,95.35
2024-01-17T23:33:44.526Z,89.90
